Vinton, IA (52349)

5:19 AM CDT on October 23, 2014 (GMT -0500)
VintonWeather.com | Change Station
CLOSE
Current Station
Personal Weather Station
Location: Vinton, IA
Elevation: 252 m
Nearby Weather Stations

Elev 252 m 42.15 °N, 92.03 °W | Updated 11 seconds ago

Mostly Cloudy
Mostly Cloudy
9.7 °C
Feels Like 7 °C
N
17.7
Wind Variable Wind from SW
Gusts 22.5 km/h

Today
High -- | Low -- °C
--% Chance of Precip.
Yesterday
High -- | Low -- °C
Precip. -- mm
7:30 AM 6:13 PM
Waning Crescent, 0% visible
Pressure 1020 hPa
Visibility 16.1 kilometers
Clouds Mostly Cloudy 1249 m
Mostly Cloudy 1828 m
Windchill 7 °C
Dew Point 6 °C
Humidity 76%
Rainfall -25375 mm
Snow Depth Not available.
UV 0.0 out of 12
Pollen 1.30 out of 12
Air Quality Not available.
Flu Activity Sporadic
METAR KVTI 230955Z AUTO 17007KT 10SM BKN041 BKN060 10/05 A3011 RMK AO2 T01010047

More Conditions Fewer Conditions

Pressure 1020 hPa
Visibility 16.1 kilometers
Clouds Mostly Cloudy 1249 m
Mostly Cloudy 1828 m
Windchill 7 °C
Dew Point 6 °C
Humidity 76%
Rainfall -25375 mm
Snow Depth Not available.
UV 0.0 out of 12
Pollen 1.30 out of 12
Air Quality Not available.
Flu Activity Sporadic
METAR KVTI 230955Z AUTO 17007KT 10SM BKN041 BKN060 10/05 A3011 RMK AO2 T01010047

More Conditions Fewer Conditions

10-Day Weather Forecast

Almanac

Astronomy

Oct. 23, 2014 Rise Set
Actual Time 7:30 AM CDT 6:13 PM CDT
Civil Twilight 7:01 AM CDT 6:42 PM CDT
Nautical Twilight 6:28 AM CDT 7:15 PM CDT
Astronomical Twilight 5:56 AM CDT 7:47 PM CDT
Moon 7:09 AM CDT 6:15 PM CDT
Length of Visible Light 11h 41m
Length of Day
10h 43m
Tomorrow will be 2m 39s shorter.
Waning Crescent, 0% of the Moon is Illuminated
Today
Waning Crescent
Oct 23
New
Oct 30
First Quarter
Nov 6
Full
Nov 14
Last Quarter

Today's Extremes

State Highs State Lows

Community

WunderPhotos

Upload Photos

1,764,202 photos uploaded!

Nearby

Snow Depth

Station Depth Elevation
No new snow has been reported.

Earthquake Activity

City Distance Mag. Time & Date
No recent earthquake activity has been reported nearby.
Minimum magnitude displayed is 2.5.

Coastal Water Temperatures

Place Temperature
No Stations Reporting

Nearby Weather Stations